Time;durP1;ratioP1;P1;durP2;ratioP2;P2;SDS_P1;SDS_P2;PMS_P1;PMS_P2;Temp;Humidity;BMP_temperature;BMP_pressure;BME280_temperature;BME280_humidity;BME280_pressure;Samples;Min_cycle;Max_cycle;Signal;HPM_P1;HPM_P2
2023/11/06 00:01:20;;;;;;;6.78;3.92;;;;;;;;;;12697790;23;20024;-69
2023/11/06 00:06:17;;;;;;;8.10;3.78;;;;;;;;;;12698469;22;20038;-69
2023/11/06 00:11:14;;;;;;;6.60;3.15;;;;;;;;;;12698681;23;20035;-69
2023/11/06 00:16:11;;;;;;;6.18;3.50;;;;;;;;;;12698287;22;20107;-68
2023/11/06 00:21:23;;;;;;;11.45;3.50;;;;;;;;;;12698392;23;20347;-68
2023/11/06 00:26:26;;;;;;;12.57;3.95;;;;;;;;;;12698095;22;20032;-68
2023/11/06 00:31:23;;;;;;;9.48;3.55;;;;;;;;;;12698338;23;20042;-69
2023/11/06 00:36:19;;;;;;;11.88;4.10;;;;;;;;;;12698533;22;20024;-69
2023/11/06 00:41:16;;;;;;;15.15;4.07;;;;;;;;;;12696496;23;20024;-69
2023/11/06 00:46:12;;;;;;;7.07;3.63;;;;;;;;;;12698411;22;20032;-69
2023/11/06 00:51:09;;;;;;;11.57;4.05;;;;;;;;;;12697006;23;20046;-67
2023/11/06 00:56:06;;;;;;;11.25;4.20;;;;;;;;;;12691161;22;20466;-68
2023/11/06 01:01:02;;;;;;;7.93;3.65;;;;;;;;;;12697002;22;20024;-69
2023/11/06 01:05:59;;;;;;;14.18;4.45;;;;;;;;;;12697148;22;20027;-69
2023/11/06 01:10:55;;;;;;;16.25;4.30;;;;;;;;;;12696393;23;20498;-69
2023/11/06 01:15:52;;;;;;;10.15;3.97;;;;;;;;;;12670550;22;20139;-67
2023/11/06 01:20:48;;;;;;;9.32;3.97;;;;;;;;;;12696418;23;20063;-66
2023/11/06 01:25:45;;;;;;;10.45;3.33;;;;;;;;;;12695283;22;20020;-68
2023/11/06 01:30:41;;;;;;;11.95;4.15;;;;;;;;;;12690500;23;20023;-68
2023/11/06 01:35:37;;;;;;;10.93;4.07;;;;;;;;;;12692695;22;20021;-70
2023/11/06 01:40:34;;;;;;;9.57;3.75;;;;;;;;;;12693951;23;20078;-69
2023/11/06 01:45:30;;;;;;;12.05;3.47;;;;;;;;;;12695490;22;20020;-69
2023/11/06 01:50:28;;;;;;;12.30;3.70;;;;;;;;;;12695377;23;20027;-69
2023/11/06 01:55:27;;;;;;;14.82;4.45;;;;;;;;;;12693817;22;20394;-68
2023/11/06 02:00:24;;;;;;;7.03;3.90;;;;;;;;;;12691890;23;20052;-69
2023/11/06 02:05:20;;;;;;;6.47;3.50;;;;;;;;;;12696286;22;20020;-69
2023/11/06 02:10:17;;;;;;;10.88;4.38;;;;;;;;;;12697358;23;20020;-69
2023/11/06 02:15:14;;;;;;;9.90;4.63;;;;;;;;;;12698332;22;20099;-69
2023/11/06 02:20:11;;;;;;;10.35;4.18;;;;;;;;;;12699139;23;20042;-69
2023/11/06 02:25:08;;;;;;;15.45;4.22;;;;;;;;;;12700456;22;20052;-69
2023/11/06 02:30:04;;;;;;;10.30;4.32;;;;;;;;;;12700434;23;20756;-69
2023/11/06 02:35:01;;;;;;;9.30;4.65;;;;;;;;;;12700364;22;20027;-69
2023/11/06 02:39:57;;;;;;;9.63;4.28;;;;;;;;;;12700250;23;20023;-69
2023/11/06 02:44:54;;;;;;;10.45;4.55;;;;;;;;;;12699406;22;20577;-69
2023/11/06 02:49:50;;;;;;;9.93;4.32;;;;;;;;;;12699171;23;20505;-70
2023/11/06 02:54:48;;;;;;;13.30;4.45;;;;;;;;;;12698741;22;20028;-71
2023/11/06 02:59:45;;;;;;;8.50;4.40;;;;;;;;;;12696099;23;20029;-69
2023/11/06 03:04:41;;;;;;;12.25;4.38;;;;;;;;;;12693828;22;20016;-68
2023/11/06 03:09:38;;;;;;;13.85;4.80;;;;;;;;;;12672406;23;20450;-67
2023/11/06 03:14:35;;;;;;;8.10;4.28;;;;;;;;;;12699420;22;20401;-68
2023/11/06 03:19:33;;;;;;;12.30;5.20;;;;;;;;;;12698436;23;20470;-71
2023/11/06 03:24:29;;;;;;;8.65;5.30;;;;;;;;;;12696516;22;20726;-69
2023/11/06 03:29:26;;;;;;;9.40;5.40;;;;;;;;;;12697322;23;20031;-69
2023/11/06 03:34:23;;;;;;;9.90;4.40;;;;;;;;;;12698989;22;20020;-71
2023/11/06 03:39:20;;;;;;;10.10;4.80;;;;;;;;;;12670571;23;20366;-70
2023/11/06 03:44:17;;;;;;;12.63;5.00;;;;;;;;;;12695617;22;20109;-70
2023/11/06 03:49:13;;;;;;;9.48;4.75;;;;;;;;;;12697127;23;20070;-69
2023/11/06 03:54:09;;;;;;;11.70;4.97;;;;;;;;;;12697202;22;20028;-70
2023/11/06 03:59:06;;;;;;;6.63;5.05;;;;;;;;;;12697948;23;20032;-70
2023/11/06 04:04:02;;;;;;;5.20;4.03;;;;;;;;;;12692627;22;20026;-70
2023/11/06 04:08:59;;;;;;;8.43;4.82;;;;;;;;;;12697704;23;20027;-70
2023/11/06 04:13:56;;;;;;;9.88;4.85;;;;;;;;;;12696069;22;20024;-69
2023/11/06 04:18:52;;;;;;;10.13;5.30;;;;;;;;;;12697382;23;20030;-69
2023/11/06 04:23:49;;;;;;;12.80;5.40;;;;;;;;;;12696418;22;20066;-68
2023/11/06 04:28:46;;;;;;;11.95;5.72;;;;;;;;;;12696399;23;20454;-68
2023/11/06 04:33:42;;;;;;;6.72;5.32;;;;;;;;;;12694471;22;20024;-70
2023/11/06 04:38:38;;;;;;;8.15;6.72;;;;;;;;;;12697473;23;20103;-71
2023/11/06 04:43:35;;;;;;;6.90;5.22;;;;;;;;;;12694823;22;20470;-71
2023/11/06 04:48:32;;;;;;;8.65;6.57;;;;;;;;;;12688585;23;20023;-71
2023/11/06 04:53:28;;;;;;;12.05;6.22;;;;;;;;;;12696558;22;20024;-71
2023/11/06 04:58:27;;;;;;;9.73;6.32;;;;;;;;;;12695484;23;20028;-70
2023/11/06 05:03:23;;;;;;;7.70;6.35;;;;;;;;;;12693156;22;20119;-70
2023/11/06 05:08:21;;;;;;;18.17;6.22;;;;;;;;;;12689777;23;20044;-72
2023/11/06 05:13:17;;;;;;;10.00;7.10;;;;;;;;;;12687689;22;20028;-70
2023/11/06 05:18:13;;;;;;;9.45;7.38;;;;;;;;;;12668413;23;20028;-70
2023/11/06 05:23:10;;;;;;;11.25;7.55;;;;;;;;;;12695025;23;20039;-70
2023/11/06 05:28:07;;;;;;;9.90;7.50;;;;;;;;;;12691345;22;20050;-70
2023/11/06 05:33:03;;;;;;;14.10;8.40;;;;;;;;;;12694088;23;20474;-70
2023/11/06 05:38:00;;;;;;;14.50;7.82;;;;;;;;;;12694983;22;20032;-70
2023/11/06 05:42:56;;;;;;;12.15;8.40;;;;;;;;;;12696224;23;20024;-69
2023/11/06 05:47:52;;;;;;;12.52;9.25;;;;;;;;;;12694068;22;20020;-71
2023/11/06 05:52:49;;;;;;;12.00;9.18;;;;;;;;;;12690858;23;20032;-70
2023/11/06 05:57:47;;;;;;;14.57;9.30;;;;;;;;;;12692983;22;20492;-70
2023/11/06 06:02:43;;;;;;;10.75;9.52;;;;;;;;;;12692586;23;20575;-72
2023/11/06 06:07:40;;;;;;;10.30;8.20;;;;;;;;;;12693110;22;20048;-72
2023/11/06 06:12:36;;;;;;;11.85;9.02;;;;;;;;;;12694699;23;20074;-71
2023/11/06 06:17:37;;;;;;;10.23;8.15;;;;;;;;;;12691188;22;20362;-72
2023/11/06 06:22:34;;;;;;;24.33;9.57;;;;;;;;;;12694588;23;20031;-72
2023/11/06 06:27:58;;;;;;;16.15;8.48;;;;;;;;;;12648015;22;20021;-72
2023/11/06 06:33:03;;;;;;;10.55;9.02;;;;;;;;;;12686472;23;20034;-72
2023/11/06 06:38:00;;;;;;;14.30;9.45;;;;;;;;;;12695945;22;20051;-72
2023/11/06 06:42:56;;;;;;;9.30;8.38;;;;;;;;;;12695930;23;20024;-72
2023/11/06 06:47:53;;;;;;;10.27;8.20;;;;;;;;;;12644120;22;20486;-74
2023/11/06 06:52:49;;;;;;;9.52;8.02;;;;;;;;;;12693422;23;20028;-73
2023/11/06 06:57:46;;;;;;;12.27;8.15;;;;;;;;;;12670663;23;20024;-72
2023/11/06 07:02:42;;;;;;;8.80;7.38;;;;;;;;;;12698857;23;20048;-72
2023/11/06 07:07:39;;;;;;;12.00;6.90;;;;;;;;;;12697701;22;20139;-73
2023/11/06 07:12:35;;;;;;;12.90;8.00;;;;;;;;;;12699606;23;20077;-72
2023/11/06 07:17:40;;;;;;;10.27;7.20;;;;;;;;;;12725066;22;20462;-73
2023/11/06 07:29:14;;;;;;;11.68;7.97;;;;;;;;;;12709013;22;20016;-73
2023/11/06 07:34:11;;;;;;;10.77;7.97;;;;;;;;;;12697744;22;20028;-73
2023/11/06 07:39:07;;;;;;;12.45;8.30;;;;;;;;;;12698188;23;20032;-73
2023/11/06 07:44:04;;;;;;;11.30;8.35;;;;;;;;;;12697087;22;20024;-73
2023/11/06 07:49:01;;;;;;;9.93;8.00;;;;;;;;;;12698780;23;20024;-73
2023/11/06 08:05:02;;;;;;;10.82;8.40;;;;;;;;;;12705327;22;20350;-73
2023/11/06 08:09:58;;;;;;;13.43;8.05;;;;;;;;;;12656598;23;20093;-72
2023/11/06 08:14:55;;;;;;;10.23;7.75;;;;;;;;;;12697302;22;20024;-73
2023/11/06 08:19:52;;;;;;;13.15;8.00;;;;;;;;;;12697695;23;20020;-73
2023/11/06 08:31:04;;;;;;;12.82;8.65;;;;;;;;;;12702563;22;20020;-73
2023/11/06 09:32:40;;;;;;;;;;;;;;;;;;;;;
2023/11/06 09:38:01;;;;;;;11.13;7.43;;;;;;;;;;12692266;22;20020;-73
2023/11/06 09:42:58;;;;;;;11.35;6.88;;;;;;;;;;12669805;23;20020;-73
2023/11/06 10:56:17;;;;;;;9.43;4.75;;;;;;;;;;12501779;23;20201;-74
2023/11/06 11:01:13;;;;;;;12.85;5.10;;;;;;;;;;12452766;23;20040;-74
2023/11/06 11:06:15;;;;;;;9.32;4.78;;;;;;;;;;12667022;22;20524;-74
2023/11/06 11:12:00;;;;;;;;;;;;;;;;;;;;;
2023/11/06 11:17:43;;;;;;;13.18;4.43;;;;;;;;;;12614942;22;20024;-74
2023/11/06 11:22:58;;;;;;;9.82;4.57;;;;;;;;;;12698948;23;20070;-73
2023/11/06 11:28:27;;;;;;;8.55;3.45;;;;;;;;;;12699072;22;20086;-74
2023/11/06 11:39:13;;;;;;;8.90;3.63;;;;;;;;;;12701214;22;20016;-74
2023/11/06 11:55:31;;;;;;;11.27;3.55;;;;;;;;;;12698299;22;20004;-73
2023/11/06 12:00:28;;;;;;;5.77;3.83;;;;;;;;;;12698070;23;20469;-74
2023/11/06 12:05:24;;;;;;;9.57;3.67;;;;;;;;;;12698416;22;20024;-73
2023/11/06 12:10:27;;;;;;;9.57;3.83;;;;;;;;;;12697468;23;20024;-73
2023/11/06 12:15:33;;;;;;;10.10;5.00;;;;;;;;;;12697497;22;20051;-73
2023/11/06 12:20:32;;;;;;;8.05;3.70;;;;;;;;;;12696706;23;20700;-74
2023/11/06 12:31:43;;;;;;;11.35;4.38;;;;;;;;;;12612055;23;20027;-73
2023/11/06 12:59:31;;;;;;;;;;;;;;;;;;;;;
2023/11/06 13:10:58;;;;;;;;;;;;;;;;;;12671181;23;20016;-74
2023/11/06 13:22:03;;;;;;;9.35;4.30;;;;;;;;;;12538224;23;20031;-74
2023/11/06 13:27:00;;;;;;;10.65;3.90;;;;;;;;;;12695515;22;20394;-74
2023/11/06 13:31:56;;;;;;;15.13;4.88;;;;;;;;;;12695711;23;20074;-73
2023/11/06 13:53:32;;;;;;;7.97;3.67;;;;;;;;;;12619743;22;20458;-74
2023/11/06 13:58:29;;;;;;;11.63;4.03;;;;;;;;;;12634148;23;20107;-74
2023/11/06 14:03:25;;;;;;;10.43;4.32;;;;;;;;;;12633828;23;20021;-74
2023/11/06 14:48:46;;;;;;;9.77;4.30;;;;;;;;;;12634284;23;20020;-76
2023/11/06 14:53:51;;;;;;;9.30;4.47;;;;;;;;;;12631481;23;20095;-74
2023/11/06 14:58:47;;;;;;;10.32;3.83;;;;;;;;;;12599732;23;20521;-74
2023/11/06 15:09:24;;;;;;;10.10;3.95;;;;;;;;;;12689187;22;20024;-73
2023/11/06 15:14:36;;;;;;;11.75;4.22;;;;;;;;;;12693670;22;20024;-73
2023/11/06 15:26:13;;;;;;;9.38;4.35;;;;;;;;;;12636450;23;20413;-74
2023/11/06 15:31:53;;;;;;;;;;;;;;;;;;12698341;23;20016;-75
2023/11/06 16:10:37;;;;;;;7.25;4.10;;;;;;;;;;12700894;22;20023;-75
2023/11/06 16:40:10;;;;;;;14.95;4.47;;;;;;;;;;12620446;23;20009;-75
2023/11/06 16:52:03;;;;;;;9.60;3.63;;;;;;;;;;12309577;23;20543;-75
2023/11/06 17:39:45;;;;;;;;;;;;;;;;;;;;;
2023/11/06 17:51:50;;;;;;;7.88;3.50;;;;;;;;;;12283885;23;20018;-75
2023/11/06 17:57:59;;;;;;;;;;;;;;;;;;;;;
2023/11/06 18:09:21;;;;;;;8.05;3.42;;;;;;;;;;12452766;23;20009;-73
2023/11/06 19:30:57;;;;;;;;;;;;;;;;;;;;;
2023/11/06 20:22:09;;;;;;;9.32;3.00;;;;;;;;;;12568149;23;20013;-75
2023/11/06 20:27:06;;;;;;;6.43;2.90;;;;;;;;;;12662220;22;20022;-75
2023/11/06 20:32:03;;;;;;;7.30;3.00;;;;;;;;;;12669538;23;20032;-74
2023/11/06 20:48:23;;;;;;;9.85;3.28;;;;;;;;;;12674744;22;20020;-73
2023/11/06 20:53:20;;;;;;;9.10;3.15;;;;;;;;;;12693033;23;20075;-72
2023/11/06 20:58:17;;;;;;;8.88;2.90;;;;;;;;;;12688885;22;20035;-69
2023/11/06 21:03:13;;;;;;;9.88;3.60;;;;;;;;;;12693314;23;20028;-69
2023/11/06 21:08:12;;;;;;;6.55;3.72;;;;;;;;;;12695352;22;20035;-69
2023/11/06 21:13:08;;;;;;;8.35;4.40;;;;;;;;;;12690223;23;20082;-69
2023/11/06 21:18:05;;;;;;;10.75;3.83;;;;;;;;;;12689974;22;20055;-69
2023/11/06 21:23:01;;;;;;;9.73;3.35;;;;;;;;;;12695378;23;20493;-69
2023/11/06 21:27:58;;;;;;;9.18;3.95;;;;;;;;;;12695555;22;20047;-69
2023/11/06 21:32:54;;;;;;;7.28;3.97;;;;;;;;;;12695415;23;20028;-70
2023/11/06 21:37:51;;;;;;;6.70;3.13;;;;;;;;;;12696857;22;20051;-69
2023/11/06 21:42:47;;;;;;;7.22;3.90;;;;;;;;;;12695945;23;20028;-69
2023/11/06 21:47:44;;;;;;;12.65;3.92;;;;;;;;;;12696393;22;20405;-71
2023/11/06 21:52:40;;;;;;;10.52;4.13;;;;;;;;;;12696711;23;20028;-70
2023/11/06 21:57:37;;;;;;;5.65;3.72;;;;;;;;;;12695603;22;20339;-70
2023/11/06 22:02:34;;;;;;;7.47;4.28;;;;;;;;;;12695644;23;20020;-70
2023/11/06 22:07:30;;;;;;;10.25;4.57;;;;;;;;;;12696801;22;20020;-70
2023/11/06 22:12:26;;;;;;;11.80;4.80;;;;;;;;;;12695862;23;20067;-70
2023/11/06 22:17:23;;;;;;;10.57;5.18;;;;;;;;;;12690693;22;20085;-70
2023/11/06 22:22:19;;;;;;;13.93;5.25;;;;;;;;;;12690872;23;20632;-70
2023/11/06 22:27:16;;;;;;;9.23;4.97;;;;;;;;;;12697927;22;20024;-71
2023/11/06 22:32:12;;;;;;;8.80;5.05;;;;;;;;;;12674334;23;20488;-71
2023/11/06 22:37:11;;;;;;;11.35;5.55;;;;;;;;;;12699205;22;20034;-71
2023/11/06 22:42:10;;;;;;;10.63;5.88;;;;;;;;;;12673465;23;20035;-70
2023/11/06 22:47:07;;;;;;;13.95;6.35;;;;;;;;;;12699583;22;20084;-70
2023/11/06 22:52:03;;;;;;;14.13;7.13;;;;;;;;;;12672571;23;20024;-70
2023/11/06 22:57:00;;;;;;;11.65;6.20;;;;;;;;;;12700419;22;20484;-69
2023/11/06 23:01:56;;;;;;;13.75;7.05;;;;;;;;;;12699801;23;20020;-69
2023/11/06 23:06:53;;;;;;;12.68;6.38;;;;;;;;;;12699690;22;20020;-70
2023/11/06 23:11:50;;;;;;;16.83;6.95;;;;;;;;;;12699791;23;20582;-70
2023/11/06 23:16:48;;;;;;;12.43;6.80;;;;;;;;;;12693967;22;20031;-69
2023/11/06 23:21:44;;;;;;;10.32;7.05;;;;;;;;;;12698491;23;20092;-69
2023/11/06 23:26:41;;;;;;;12.73;5.97;;;;;;;;;;12699516;22;20074;-69
2023/11/06 23:31:43;;;;;;;10.13;6.90;;;;;;;;;;12698916;23;20028;-68
2023/11/06 23:36:39;;;;;;;14.07;7.22;;;;;;;;;;12699855;22;20020;-71
2023/11/06 23:41:36;;;;;;;10.55;6.80;;;;;;;;;;12697919;23;20023;-72
2023/11/06 23:46:41;;;;;;;13.75;6.90;;;;;;;;;;12698476;22;20024;-72
2023/11/06 23:51:37;;;;;;;14.25;7.35;;;;;;;;;;12698555;23;20085;-72
2023/11/06 23:56:33;;;;;;;8.75;7.05;;;;;;;;;;12699181;22;20405;-73
